sensor_id;sensor_type;location;lat;lon;timestamp;temperature;humidity
20568;DHT22;10442;49.932;11.592;2023-02-25T00:01:33;6.70;75.90
20568;DHT22;10442;49.932;11.592;2023-02-25T00:04:01;6.70;75.90
20568;DHT22;10442;49.932;11.592;2023-02-25T00:06:28;6.70;75.90
20568;DHT22;10442;49.932;11.592;2023-02-25T00:08:56;6.70;75.90
20568;DHT22;10442;49.932;11.592;2023-02-25T00:11:24;6.70;76.10
20568;DHT22;10442;49.932;11.592;2023-02-25T00:13:52;6.70;76.10
20568;DHT22;10442;49.932;11.592;2023-02-25T00:16:21;6.70;76.00
20568;DHT22;10442;49.932;11.592;2023-02-25T00:18:54;6.70;76.00
20568;DHT22;10442;49.932;11.592;2023-02-25T00:21:23;6.70;76.00
20568;DHT22;10442;49.932;11.592;2023-02-25T00:23:51;6.70;75.90
20568;DHT22;10442;49.932;11.592;2023-02-25T00:26:20;6.60;75.70
20568;DHT22;10442;49.932;11.592;2023-02-25T00:28:48;6.60;75.50
20568;DHT22;10442;49.932;11.592;2023-02-25T00:31:19;6.60;75.50
20568;DHT22;10442;49.932;11.592;2023-02-25T00:33:47;6.50;75.30
20568;DHT22;10442;49.932;11.592;2023-02-25T00:36:20;6.50;75.60
20568;DHT22;10442;49.932;11.592;2023-02-25T00:38:51;6.50;75.60
20568;DHT22;10442;49.932;11.592;2023-02-25T00:41:22;6.40;75.60
20568;DHT22;10442;49.932;11.592;2023-02-25T00:43:53;6.40;75.70
20568;DHT22;10442;49.932;11.592;2023-02-25T00:46:21;6.40;75.70
20568;DHT22;10442;49.932;11.592;2023-02-25T00:48:50;6.30;75.70
20568;DHT22;10442;49.932;11.592;2023-02-25T00:51:21;6.30;75.70
20568;DHT22;10442;49.932;11.592;2023-02-25T00:53:50;6.30;75.60
20568;DHT22;10442;49.932;11.592;2023-02-25T00:56:18;6.30;75.50
20568;DHT22;10442;49.932;11.592;2023-02-25T00:58:48;6.20;75.40
20568;DHT22;10442;49.932;11.592;2023-02-25T01:01:22;6.20;75.30
20568;DHT22;10442;49.932;11.592;2023-02-25T01:03:52;6.10;75.20
20568;DHT22;10442;49.932;11.592;2023-02-25T01:06:23;6.10;75.30
20568;DHT22;10442;49.932;11.592;2023-02-25T01:08:52;6.00;75.20
20568;DHT22;10442;49.932;11.592;2023-02-25T01:11:24;6.00;75.30
20568;DHT22;10442;49.932;11.592;2023-02-25T01:14:01;6.00;75.30
20568;DHT22;10442;49.932;11.592;2023-02-25T01:16:31;5.90;75.30
20568;DHT22;10442;49.932;11.592;2023-02-25T01:19:02;5.90;75.30
20568;DHT22;10442;49.932;11.592;2023-02-25T01:21:51;5.80;75.50
20568;DHT22;10442;49.932;11.592;2023-02-25T01:24:22;5.70;75.60
20568;DHT22;10442;49.932;11.592;2023-02-25T01:26:55;5.70;75.70
20568;DHT22;10442;49.932;11.592;2023-02-25T01:29:29;5.70;76.00
20568;DHT22;10442;49.932;11.592;2023-02-25T01:31:59;5.60;76.40
20568;DHT22;10442;49.932;11.592;2023-02-25T01:34:28;5.60;76.60
20568;DHT22;10442;49.932;11.592;2023-02-25T01:36:56;5.60;76.80
20568;DHT22;10442;49.932;11.592;2023-02-25T01:39:26;5.60;76.90
20568;DHT22;10442;49.932;11.592;2023-02-25T01:41:55;5.60;77.10
20568;DHT22;10442;49.932;11.592;2023-02-25T01:44:33;5.60;77.10
20568;DHT22;10442;49.932;11.592;2023-02-25T01:47:01;5.70;77.20
20568;DHT22;10442;49.932;11.592;2023-02-25T01:49:42;5.70;77.10
20568;DHT22;10442;49.932;11.592;2023-02-25T01:52:22;5.70;77.20
20568;DHT22;10442;49.932;11.592;2023-02-25T01:54:52;5.80;77.30
20568;DHT22;10442;49.932;11.592;2023-02-25T01:57:22;5.80;77.20
20568;DHT22;10442;49.932;11.592;2023-02-25T01:59:52;5.80;77.10
20568;DHT22;10442;49.932;11.592;2023-02-25T02:02:22;5.90;77.20
20568;DHT22;10442;49.932;11.592;2023-02-25T02:04:52;5.90;77.20
20568;DHT22;10442;49.932;11.592;2023-02-25T02:07:21;5.90;77.00
20568;DHT22;10442;49.932;11.592;2023-02-25T02:09:51;5.90;76.90
20568;DHT22;10442;49.932;11.592;2023-02-25T02:12:35;6.00;76.80
20568;DHT22;10442;49.932;11.592;2023-02-25T02:15:07;6.00;76.80
20568;DHT22;10442;49.932;11.592;2023-02-25T02:17:37;6.00;76.60
20568;DHT22;10442;49.932;11.592;2023-02-25T02:20:29;6.00;76.50
20568;DHT22;10442;49.932;11.592;2023-02-25T02:23:17;6.10;76.50
20568;DHT22;10442;49.932;11.592;2023-02-25T02:35:28;6.00;76.10
20568;DHT22;10442;49.932;11.592;2023-02-25T02:40:29;6.10;75.90
20568;DHT22;10442;49.932;11.592;2023-02-25T02:43:16;6.10;75.70
20568;DHT22;10442;49.932;11.592;2023-02-25T02:46:05;6.10;75.80
20568;DHT22;10442;49.932;11.592;2023-02-25T02:48:53;6.20;75.80
20568;DHT22;10442;49.932;11.592;2023-02-25T02:51:27;6.10;75.70
20568;DHT22;10442;49.932;11.592;2023-02-25T02:54:00;6.10;75.60
20568;DHT22;10442;49.932;11.592;2023-02-25T02:56:32;6.10;75.50
20568;DHT22;10442;49.932;11.592;2023-02-25T02:59:11;6.10;75.50
20568;DHT22;10442;49.932;11.592;2023-02-25T03:01:44;6.10;75.40
20568;DHT22;10442;49.932;11.592;2023-02-25T03:04:15;6.10;75.20
20568;DHT22;10442;49.932;11.592;2023-02-25T03:06:47;6.10;75.30
20568;DHT22;10442;49.932;11.592;2023-02-25T03:09:21;6.10;75.30
20568;DHT22;10442;49.932;11.592;2023-02-25T03:11:50;6.10;75.40
20568;DHT22;10442;49.932;11.592;2023-02-25T03:14:18;6.10;75.30
20568;DHT22;10442;49.932;11.592;2023-02-25T03:16:53;6.10;75.00
20568;DHT22;10442;49.932;11.592;2023-02-25T03:19:31;6.10;75.00
20568;DHT22;10442;49.932;11.592;2023-02-25T03:22:30;6.10;75.10
20568;DHT22;10442;49.932;11.592;2023-02-25T03:25:29;6.10;75.00
20568;DHT22;10442;49.932;11.592;2023-02-25T03:28:06;6.10;74.90
20568;DHT22;10442;49.932;11.592;2023-02-25T03:30:53;6.10;75.00
20568;DHT22;10442;49.932;11.592;2023-02-25T03:33:31;6.10;75.00
20568;DHT22;10442;49.932;11.592;2023-02-25T03:36:07;6.10;74.70
20568;DHT22;10442;49.932;11.592;2023-02-25T03:38:36;6.10;74.70
20568;DHT22;10442;49.932;11.592;2023-02-25T03:41:07;6.00;74.60
20568;DHT22;10442;49.932;11.592;2023-02-25T03:43:47;6.00;74.40
20568;DHT22;10442;49.932;11.592;2023-02-25T03:46:18;6.00;74.30
20568;DHT22;10442;49.932;11.592;2023-02-25T03:48:46;6.00;74.30
20568;DHT22;10442;49.932;11.592;2023-02-25T03:51:19;5.90;74.40
20568;DHT22;10442;49.932;11.592;2023-02-25T03:53:48;5.90;74.60
20568;DHT22;10442;49.932;11.592;2023-02-25T03:56:20;5.80;74.60
20568;DHT22;10442;49.932;11.592;2023-02-25T03:58:49;5.80;74.60
20568;DHT22;10442;49.932;11.592;2023-02-25T04:01:25;5.80;74.70
20568;DHT22;10442;49.932;11.592;2023-02-25T04:03:54;5.80;74.80
20568;DHT22;10442;49.932;11.592;2023-02-25T04:06:23;5.80;74.70
20568;DHT22;10442;49.932;11.592;2023-02-25T04:08:51;5.80;74.60
20568;DHT22;10442;49.932;11.592;2023-02-25T04:11:19;5.80;74.50
20568;DHT22;10442;49.932;11.592;2023-02-25T04:13:47;5.80;75.30
20568;DHT22;10442;49.932;11.592;2023-02-25T04:16:15;5.80;74.50
20568;DHT22;10442;49.932;11.592;2023-02-25T04:18:44;5.80;74.40
20568;DHT22;10442;49.932;11.592;2023-02-25T04:21:33;5.80;74.60
20568;DHT22;10442;49.932;11.592;2023-02-25T04:24:02;5.80;74.80
20568;DHT22;10442;49.932;11.592;2023-02-25T04:26:32;5.80;74.90
20568;DHT22;10442;49.932;11.592;2023-02-25T04:28:59;5.80;74.90
20568;DHT22;10442;49.932;11.592;2023-02-25T04:31:27;5.80;74.90
20568;DHT22;10442;49.932;11.592;2023-02-25T04:33:54;5.80;75.10
20568;DHT22;10442;49.932;11.592;2023-02-25T04:36:30;5.80;75.10
20568;DHT22;10442;49.932;11.592;2023-02-25T04:39:00;5.80;75.10
20568;DHT22;10442;49.932;11.592;2023-02-25T04:41:31;5.80;75.00
20568;DHT22;10442;49.932;11.592;2023-02-25T04:43:59;5.80;75.00
20568;DHT22;10442;49.932;11.592;2023-02-25T04:46:26;5.80;75.00
20568;DHT22;10442;49.932;11.592;2023-02-25T04:48:54;5.80;74.90
20568;DHT22;10442;49.932;11.592;2023-02-25T04:51:22;5.80;74.90
20568;DHT22;10442;49.932;11.592;2023-02-25T04:53:49;5.80;74.90
20568;DHT22;10442;49.932;11.592;2023-02-25T04:56:17;5.80;74.90
20568;DHT22;10442;49.932;11.592;2023-02-25T04:58:45;5.80;74.90
20568;DHT22;10442;49.932;11.592;2023-02-25T05:01:13;5.80;74.80
20568;DHT22;10442;49.932;11.592;2023-02-25T05:03:40;5.80;74.80
20568;DHT22;10442;49.932;11.592;2023-02-25T05:06:08;5.80;74.60
20568;DHT22;10442;49.932;11.592;2023-02-25T05:08:36;5.80;74.50
20568;DHT22;10442;49.932;11.592;2023-02-25T05:11:04;5.80;74.50
20568;DHT22;10442;49.932;11.592;2023-02-25T05:13:31;5.80;74.70
20568;DHT22;10442;49.932;11.592;2023-02-25T05:16:09;5.80;74.70
20568;DHT22;10442;49.932;11.592;2023-02-25T05:18:37;5.90;74.70
20568;DHT22;10442;49.932;11.592;2023-02-25T05:21:13;5.90;74.60
20568;DHT22;10442;49.932;11.592;2023-02-25T05:23:42;5.90;74.70
20568;DHT22;10442;49.932;11.592;2023-02-25T05:26:12;6.00;74.70
20568;DHT22;10442;49.932;11.592;2023-02-25T05:28:40;5.90;74.40
20568;DHT22;10442;49.932;11.592;2023-02-25T05:31:11;6.00;74.50
20568;DHT22;10442;49.932;11.592;2023-02-25T05:33:39;6.00;74.60
20568;DHT22;10442;49.932;11.592;2023-02-25T05:36:08;6.00;74.50
20568;DHT22;10442;49.932;11.592;2023-02-25T05:38:37;6.00;74.30
20568;DHT22;10442;49.932;11.592;2023-02-25T05:41:05;6.00;74.10
20568;DHT22;10442;49.932;11.592;2023-02-25T05:43:33;6.00;74.00
20568;DHT22;10442;49.932;11.592;2023-02-25T05:46:01;6.00;74.00
20568;DHT22;10442;49.932;11.592;2023-02-25T05:48:32;6.00;74.10
20568;DHT22;10442;49.932;11.592;2023-02-25T05:51:05;6.00;74.20
20568;DHT22;10442;49.932;11.592;2023-02-25T05:53:33;6.00;74.20
20568;DHT22;10442;49.932;11.592;2023-02-25T05:56:07;6.00;74.20
20568;DHT22;10442;49.932;11.592;2023-02-25T05:58:36;6.00;74.10
20568;DHT22;10442;49.932;11.592;2023-02-25T06:01:12;6.00;74.00
20568;DHT22;10442;49.932;11.592;2023-02-25T06:03:42;6.00;74.00
20568;DHT22;10442;49.932;11.592;2023-02-25T06:06:12;6.00;74.80
20568;DHT22;10442;49.932;11.592;2023-02-25T06:08:41;6.00;74.10
20568;DHT22;10442;49.932;11.592;2023-02-25T06:11:16;6.00;74.10
20568;DHT22;10442;49.932;11.592;2023-02-25T06:13:46;6.00;74.10
20568;DHT22;10442;49.932;11.592;2023-02-25T06:16:13;6.00;74.30
20568;DHT22;10442;49.932;11.592;2023-02-25T06:18:40;6.00;74.30
20568;DHT22;10442;49.932;11.592;2023-02-25T06:21:10;6.00;74.20
20568;DHT22;10442;49.932;11.592;2023-02-25T06:23:39;6.00;74.10
20568;DHT22;10442;49.932;11.592;2023-02-25T06:26:08;6.00;74.10
20568;DHT22;10442;49.932;11.592;2023-02-25T06:28:36;6.00;74.00
20568;DHT22;10442;49.932;11.592;2023-02-25T06:31:13;6.00;73.90
20568;DHT22;10442;49.932;11.592;2023-02-25T06:33:41;6.00;73.60
20568;DHT22;10442;49.932;11.592;2023-02-25T06:36:09;6.00;73.60
20568;DHT22;10442;49.932;11.592;2023-02-25T06:38:38;6.00;73.60
20568;DHT22;10442;49.932;11.592;2023-02-25T06:41:08;6.00;73.50
20568;DHT22;10442;49.932;11.592;2023-02-25T06:43:37;6.00;73.50
20568;DHT22;10442;49.932;11.592;2023-02-25T06:46:09;6.10;73.50
20568;DHT22;10442;49.932;11.592;2023-02-25T06:48:37;6.00;73.50
20568;DHT22;10442;49.932;11.592;2023-02-25T06:51:05;6.10;73.60
20568;DHT22;10442;49.932;11.592;2023-02-25T06:53:41;6.00;74.30
20568;DHT22;10442;49.932;11.592;2023-02-25T06:56:10;6.00;73.50
20568;DHT22;10442;49.932;11.592;2023-02-25T06:58:39;6.10;73.50
20568;DHT22;10442;49.932;11.592;2023-02-25T07:01:08;6.10;73.40
20568;DHT22;10442;49.932;11.592;2023-02-25T07:03:36;6.10;73.50
20568;DHT22;10442;49.932;11.592;2023-02-25T07:06:04;6.10;73.30
20568;DHT22;10442;49.932;11.592;2023-02-25T07:08:32;6.10;73.30
20568;DHT22;10442;49.932;11.592;2023-02-25T07:11:11;6.20;73.70
20568;DHT22;10442;49.932;11.592;2023-02-25T07:13:42;6.20;73.30
20568;DHT22;10442;49.932;11.592;2023-02-25T07:16:11;6.10;73.30
20568;DHT22;10442;49.932;11.592;2023-02-25T07:18:40;6.20;73.20
20568;DHT22;10442;49.932;11.592;2023-02-25T07:21:08;6.20;73.30
20568;DHT22;10442;49.932;11.592;2023-02-25T07:23:36;6.20;73.10
20568;DHT22;10442;49.932;11.592;2023-02-25T07:26:04;6.20;73.20
20568;DHT22;10442;49.932;11.592;2023-02-25T07:28:34;6.20;73.90
20568;DHT22;10442;49.932;11.592;2023-02-25T07:31:07;6.30;73.50
20568;DHT22;10442;49.932;11.592;2023-02-25T07:33:36;6.30;73.50
20568;DHT22;10442;49.932;11.592;2023-02-25T07:36:04;6.40;73.30
20568;DHT22;10442;49.932;11.592;2023-02-25T07:38:31;6.40;73.30
20568;DHT22;10442;49.932;11.592;2023-02-25T07:41:07;6.50;73.30
20568;DHT22;10442;49.932;11.592;2023-02-25T07:43:35;6.50;73.30
20568;DHT22;10442;49.932;11.592;2023-02-25T07:46:03;6.60;73.40
20568;DHT22;10442;49.932;11.592;2023-02-25T07:48:31;6.50;73.10
20568;DHT22;10442;49.932;11.592;2023-02-25T07:51:12;6.60;72.80
20568;DHT22;10442;49.932;11.592;2023-02-25T07:53:41;6.60;72.60
20568;DHT22;10442;49.932;11.592;2023-02-25T07:56:10;6.60;72.50
20568;DHT22;10442;49.932;11.592;2023-02-25T07:58:38;6.60;72.50
20568;DHT22;10442;49.932;11.592;2023-02-25T08:01:10;6.60;72.20
20568;DHT22;10442;49.932;11.592;2023-02-25T08:03:37;6.70;72.30
20568;DHT22;10442;49.932;11.592;2023-02-25T08:06:05;6.70;72.50
20568;DHT22;10442;49.932;11.592;2023-02-25T08:08:35;6.80;72.40
20568;DHT22;10442;49.932;11.592;2023-02-25T08:11:10;6.90;72.40
20568;DHT22;10442;49.932;11.592;2023-02-25T08:13:38;6.90;72.00
20568;DHT22;10442;49.932;11.592;2023-02-25T08:16:08;7.00;72.10
20568;DHT22;10442;49.932;11.592;2023-02-25T08:18:36;7.20;72.60
20568;DHT22;10442;49.932;11.592;2023-02-25T08:21:04;7.40;73.00
20568;DHT22;10442;49.932;11.592;2023-02-25T08:23:32;7.70;72.30
20568;DHT22;10442;49.932;11.592;2023-02-25T08:26:00;8.00;71.60
20568;DHT22;10442;49.932;11.592;2023-02-25T08:28:28;8.10;70.60
20568;DHT22;10442;49.932;11.592;2023-02-25T08:31:02;8.40;70.40
20568;DHT22;10442;49.932;11.592;2023-02-25T08:33:30;8.50;69.40
20568;DHT22;10442;49.932;11.592;2023-02-25T08:36:12;8.60;69.00
20568;DHT22;10442;49.932;11.592;2023-02-25T08:38:40;8.70;68.10
20568;DHT22;10442;49.932;11.592;2023-02-25T08:41:08;8.60;67.10
20568;DHT22;10442;49.932;11.592;2023-02-25T08:43:36;8.60;67.10
20568;DHT22;10442;49.932;11.592;2023-02-25T08:46:04;8.60;66.90
20568;DHT22;10442;49.932;11.592;2023-02-25T08:48:33;8.60;66.70
20568;DHT22;10442;49.932;11.592;2023-02-25T08:51:03;8.50;66.30
20568;DHT22;10442;49.932;11.592;2023-02-25T08:53:38;8.40;66.60
20568;DHT22;10442;49.932;11.592;2023-02-25T08:56:08;8.30;66.70
20568;DHT22;10442;49.932;11.592;2023-02-25T08:58:36;8.20;66.70
20568;DHT22;10442;49.932;11.592;2023-02-25T09:01:09;8.10;66.70
20568;DHT22;10442;49.932;11.592;2023-02-25T09:03:44;8.10;67.00
20568;DHT22;10442;49.932;11.592;2023-02-25T09:06:26;8.00;67.20
20568;DHT22;10442;49.932;11.592;2023-02-25T09:08:56;7.80;66.80
20568;DHT22;10442;49.932;11.592;2023-02-25T09:11:25;7.80;67.00
20568;DHT22;10442;49.932;11.592;2023-02-25T09:13:53;7.70;67.30
20568;DHT22;10442;49.932;11.592;2023-02-25T09:16:20;7.70;67.60
20568;DHT22;10442;49.932;11.592;2023-02-25T09:18:49;7.60;67.50
20568;DHT22;10442;49.932;11.592;2023-02-25T09:21:18;7.60;67.70
20568;DHT22;10442;49.932;11.592;2023-02-25T09:23:46;7.60;68.10
20568;DHT22;10442;49.932;11.592;2023-02-25T09:26:18;7.60;68.50
20568;DHT22;10442;49.932;11.592;2023-02-25T09:28:46;7.60;68.60
20568;DHT22;10442;49.932;11.592;2023-02-25T09:31:15;7.70;69.20
20568;DHT22;10442;49.932;11.592;2023-02-25T09:33:44;7.80;69.60
20568;DHT22;10442;49.932;11.592;2023-02-25T09:36:14;8.00;69.60
20568;DHT22;10442;49.932;11.592;2023-02-25T09:38:44;7.90;69.00
20568;DHT22;10442;49.932;11.592;2023-02-25T09:44:03;8.00;69.10
20568;DHT22;10442;49.932;11.592;2023-02-25T09:46:34;8.00;68.80
20568;DHT22;10442;49.932;11.592;2023-02-25T09:49:06;8.00;68.80
20568;DHT22;10442;49.932;11.592;2023-02-25T09:51:40;8.00;68.90
20568;DHT22;10442;49.932;11.592;2023-02-25T09:54:22;8.00;68.80
20568;DHT22;10442;49.932;11.592;2023-02-25T09:56:54;8.10;68.50
20568;DHT22;10442;49.932;11.592;2023-02-25T09:59:26;8.10;68.50
20568;DHT22;10442;49.932;11.592;2023-02-25T10:01:59;8.10;68.40
20568;DHT22;10442;49.932;11.592;2023-02-25T10:04:53;8.10;68.20
20568;DHT22;10442;49.932;11.592;2023-02-25T10:07:26;8.20;68.00
20568;DHT22;10442;49.932;11.592;2023-02-25T10:12:55;8.30;67.90
20568;DHT22;10442;49.932;11.592;2023-02-25T10:24:12;8.60;66.40
20568;DHT22;10442;49.932;11.592;2023-02-25T10:26:48;8.60;66.20
20568;DHT22;10442;49.932;11.592;2023-02-25T10:29:24;8.60;65.70
20568;DHT22;10442;49.932;11.592;2023-02-25T10:31:58;8.70;65.30
20568;DHT22;10442;49.932;11.592;2023-02-25T10:34:28;8.70;66.10
20568;DHT22;10442;49.932;11.592;2023-02-25T10:36:58;8.80;65.90
20568;DHT22;10442;49.932;11.592;2023-02-25T10:39:26;8.80;65.40
20568;DHT22;10442;49.932;11.592;2023-02-25T10:41:54;8.90;65.50
20568;DHT22;10442;49.932;11.592;2023-02-25T10:44:22;9.00;65.50
20568;DHT22;10442;49.932;11.592;2023-02-25T10:47:02;9.00;64.40
20568;DHT22;10442;49.932;11.592;2023-02-25T10:49:30;9.00;64.00
20568;DHT22;10442;49.932;11.592;2023-02-25T10:52:15;9.00;64.00
20568;DHT22;10442;49.932;11.592;2023-02-25T10:54:47;8.90;64.00
20568;DHT22;10442;49.932;11.592;2023-02-25T10:57:16;8.90;64.60
20568;DHT22;10442;49.932;11.592;2023-02-25T10:59:45;8.90;64.80
20568;DHT22;10442;49.932;11.592;2023-02-25T11:02:24;8.90;65.60
20568;DHT22;10442;49.932;11.592;2023-02-25T11:04:54;8.80;65.80
20568;DHT22;10442;49.932;11.592;2023-02-25T11:07:36;8.80;66.20
20568;DHT22;10442;49.932;11.592;2023-02-25T11:10:18;8.90;66.90
20568;DHT22;10442;49.932;11.592;2023-02-25T11:12:48;9.00;66.80
20568;DHT22;10442;49.932;11.592;2023-02-25T11:15:36;9.20;66.70
20568;DHT22;10442;49.932;11.592;2023-02-25T11:18:26;9.20;65.90
20568;DHT22;10442;49.932;11.592;2023-02-25T11:21:00;9.20;65.60
20568;DHT22;10442;49.932;11.592;2023-02-25T11:23:46;9.30;66.00
20568;DHT22;10442;49.932;11.592;2023-02-25T11:26:39;9.30;66.20
20568;DHT22;10442;49.932;11.592;2023-02-25T11:29:11;9.40;66.70
20568;DHT22;10442;49.932;11.592;2023-02-25T11:31:41;9.40;66.40
20568;DHT22;10442;49.932;11.592;2023-02-25T11:34:18;9.50;66.80
20568;DHT22;10442;49.932;11.592;2023-02-25T11:36:48;9.60;66.60
20568;DHT22;10442;49.932;11.592;2023-02-25T11:39:21;9.70;67.20
20568;DHT22;10442;49.932;11.592;2023-02-25T11:41:51;9.80;67.10
20568;DHT22;10442;49.932;11.592;2023-02-25T11:44:25;9.90;66.00
20568;DHT22;10442;49.932;11.592;2023-02-25T11:46:54;9.90;64.00
20568;DHT22;10442;49.932;11.592;2023-02-25T11:52:45;9.60;62.70
20568;DHT22;10442;49.932;11.592;2023-02-25T11:55:23;9.40;62.60
20568;DHT22;10442;49.932;11.592;2023-02-25T12:00:57;8.80;63.20
20568;DHT22;10442;49.932;11.592;2023-02-25T12:15:29;7.70;65.60
20568;DHT22;10442;49.932;11.592;2023-02-25T12:27:03;6.90;67.40
20568;DHT22;10442;49.932;11.592;2023-02-25T12:38:14;6.40;69.30
20568;DHT22;10442;49.932;11.592;2023-02-25T12:41:07;6.40;69.70
20568;DHT22;10442;49.932;11.592;2023-02-25T12:44:05;6.30;70.00
20568;DHT22;10442;49.932;11.592;2023-02-25T12:46:45;6.30;70.40
20568;DHT22;10442;49.932;11.592;2023-02-25T12:49:46;6.30;70.60
20568;DHT22;10442;49.932;11.592;2023-02-25T12:55:41;6.30;70.90
20568;DHT22;10442;49.932;11.592;2023-02-25T13:07:16;6.50;70.80
20568;DHT22;10442;49.932;11.592;2023-02-25T13:27:11;6.90;71.30
20568;DHT22;10442;49.932;11.592;2023-02-25T13:32:48;7.00;71.20
20568;DHT22;10442;49.932;11.592;2023-02-25T13:35:54;7.00;70.90
20568;DHT22;10442;49.932;11.592;2023-02-25T13:38:29;7.10;70.50
20568;DHT22;10442;49.932;11.592;2023-02-25T13:47:32;7.10;70.60
20568;DHT22;10442;49.932;11.592;2023-02-25T13:50:30;7.10;70.90
20568;DHT22;10442;49.932;11.592;2023-02-25T13:54:00;7.10;70.10
20568;DHT22;10442;49.932;11.592;2023-02-25T14:06:05;6.60;70.20
20568;DHT22;10442;49.932;11.592;2023-02-25T14:09:15;6.60;70.70
20568;DHT22;10442;49.932;11.592;2023-02-25T14:12:06;6.60;71.00
20568;DHT22;10442;49.932;11.592;2023-02-25T14:17:23;6.70;71.30
20568;DHT22;10442;49.932;11.592;2023-02-25T14:22:57;6.80;71.60
20568;DHT22;10442;49.932;11.592;2023-02-25T14:25:41;6.90;71.50
20568;DHT22;10442;49.932;11.592;2023-02-25T14:31:33;6.90;70.60
20568;DHT22;10442;49.932;11.592;2023-02-25T14:40:02;6.80;70.10
20568;DHT22;10442;49.932;11.592;2023-02-25T14:42:59;6.80;70.20
20568;DHT22;10442;49.932;11.592;2023-02-25T14:45:52;6.80;70.30
20568;DHT22;10442;49.932;11.592;2023-02-25T14:53:47;6.80;69.80
20568;DHT22;10442;49.932;11.592;2023-02-25T14:56:24;6.90;69.60
20568;DHT22;10442;49.932;11.592;2023-02-25T15:02:30;6.90;69.20
20568;DHT22;10442;49.932;11.592;2023-02-25T15:07:55;7.10;69.40
20568;DHT22;10442;49.932;11.592;2023-02-25T15:21:47;7.30;68.50
20568;DHT22;10442;49.932;11.592;2023-02-25T15:24:40;7.30;68.90
20568;DHT22;10442;49.932;11.592;2023-02-25T15:32:56;7.20;68.90
20568;DHT22;10442;49.932;11.592;2023-02-25T15:38:04;7.20;68.10
20568;DHT22;10442;49.932;11.592;2023-02-25T15:46:24;7.10;66.10
20568;DHT22;10442;49.932;11.592;2023-02-25T15:49:26;7.00;66.40
20568;DHT22;10442;49.932;11.592;2023-02-25T15:52:07;7.00;66.40
20568;DHT22;10442;49.932;11.592;2023-02-25T15:59:52;6.80;67.10
20568;DHT22;10442;49.932;11.592;2023-02-25T16:07:32;6.60;67.40
20568;DHT22;10442;49.932;11.592;2023-02-25T16:10:06;6.60;67.40
20568;DHT22;10442;49.932;11.592;2023-02-25T16:12:36;6.60;67.50
20568;DHT22;10442;49.932;11.592;2023-02-25T16:15:05;6.60;67.70
20568;DHT22;10442;49.932;11.592;2023-02-25T16:17:34;6.50;67.00
20568;DHT22;10442;49.932;11.592;2023-02-25T16:22:43;6.30;66.30
20568;DHT22;10442;49.932;11.592;2023-02-25T16:25:14;6.20;66.70
20568;DHT22;10442;49.932;11.592;2023-02-25T16:28:00;6.10;67.00
20568;DHT22;10442;49.932;11.592;2023-02-25T16:30:37;6.00;67.50
20568;DHT22;10442;49.932;11.592;2023-02-25T16:33:26;5.80;67.80
20568;DHT22;10442;49.932;11.592;2023-02-25T16:36:06;5.70;68.40
20568;DHT22;10442;49.932;11.592;2023-02-25T16:38:54;5.60;68.50
20568;DHT22;10442;49.932;11.592;2023-02-25T16:41:23;5.50;68.90
20568;DHT22;10442;49.932;11.592;2023-02-25T16:44:04;5.40;69.10
20568;DHT22;10442;49.932;11.592;2023-02-25T16:46:36;5.30;69.20
20568;DHT22;10442;49.932;11.592;2023-02-25T16:49:23;5.30;69.50
20568;DHT22;10442;49.932;11.592;2023-02-25T16:51:52;5.30;69.70
20568;DHT22;10442;49.932;11.592;2023-02-25T16:54:31;5.20;69.80
20568;DHT22;10442;49.932;11.592;2023-02-25T16:57:01;5.20;70.10
20568;DHT22;10442;49.932;11.592;2023-02-25T16:59:34;5.10;70.10
20568;DHT22;10442;49.932;11.592;2023-02-25T17:02:20;5.10;70.50
20568;DHT22;10442;49.932;11.592;2023-02-25T17:04:50;5.00;70.60
20568;DHT22;10442;49.932;11.592;2023-02-25T17:07:25;5.00;70.50
20568;DHT22;10442;49.932;11.592;2023-02-25T17:10:00;5.00;70.60
20568;DHT22;10442;49.932;11.592;2023-02-25T17:12:41;5.00;70.50
20568;DHT22;10442;49.932;11.592;2023-02-25T17:15:24;4.90;70.40
20568;DHT22;10442;49.932;11.592;2023-02-25T17:20:28;5.00;70.40
20568;DHT22;10442;49.932;11.592;2023-02-25T17:22:57;4.90;70.10
20568;DHT22;10442;49.932;11.592;2023-02-25T17:25:31;4.90;70.00
20568;DHT22;10442;49.932;11.592;2023-02-25T17:28:01;4.90;70.10
20568;DHT22;10442;49.932;11.592;2023-02-25T17:30:43;4.90;70.30
20568;DHT22;10442;49.932;11.592;2023-02-25T17:35:45;5.00;70.70
20568;DHT22;10442;49.932;11.592;2023-02-25T17:38:17;5.00;70.50
20568;DHT22;10442;49.932;11.592;2023-02-25T17:40:46;5.00;70.20
20568;DHT22;10442;49.932;11.592;2023-02-25T17:43:19;5.00;70.30
20568;DHT22;10442;49.932;11.592;2023-02-25T17:45:55;5.00;70.30
20568;DHT22;10442;49.932;11.592;2023-02-25T17:48:29;5.00;70.10
20568;DHT22;10442;49.932;11.592;2023-02-25T17:51:03;5.00;70.20
20568;DHT22;10442;49.932;11.592;2023-02-25T17:53:47;5.00;70.70
20568;DHT22;10442;49.932;11.592;2023-02-25T17:56:18;5.00;69.60
20568;DHT22;10442;49.932;11.592;2023-02-25T17:58:50;4.90;69.70
20568;DHT22;10442;49.932;11.592;2023-02-25T18:01:29;4.90;69.90
20568;DHT22;10442;49.932;11.592;2023-02-25T18:03:58;4.90;69.80
20568;DHT22;10442;49.932;11.592;2023-02-25T18:06:40;4.80;69.50
20568;DHT22;10442;49.932;11.592;2023-02-25T18:09:44;4.80;69.50
20568;DHT22;10442;49.932;11.592;2023-02-25T18:14:55;4.70;69.30
20568;DHT22;10442;49.932;11.592;2023-02-25T18:17:30;4.70;69.50
20568;DHT22;10442;49.932;11.592;2023-02-25T18:20:00;4.70;69.30
20568;DHT22;10442;49.932;11.592;2023-02-25T18:22:34;4.70;69.30
20568;DHT22;10442;49.932;11.592;2023-02-25T18:25:06;4.70;69.10
20568;DHT22;10442;49.932;11.592;2023-02-25T18:27:53;4.70;68.60
20568;DHT22;10442;49.932;11.592;2023-02-25T18:30:23;4.60;68.50
20568;DHT22;10442;49.932;11.592;2023-02-25T18:32:52;4.60;68.30
20568;DHT22;10442;49.932;11.592;2023-02-25T18:35:20;4.60;68.30
20568;DHT22;10442;49.932;11.592;2023-02-25T18:37:50;4.50;68.40
20568;DHT22;10442;49.932;11.592;2023-02-25T18:40:28;4.50;68.20
20568;DHT22;10442;49.932;11.592;2023-02-25T18:42:58;4.40;68.20
20568;DHT22;10442;49.932;11.592;2023-02-25T18:45:27;4.40;68.10
20568;DHT22;10442;49.932;11.592;2023-02-25T18:47:56;4.40;68.00
20568;DHT22;10442;49.932;11.592;2023-02-25T18:50:23;4.30;68.20
20568;DHT22;10442;49.932;11.592;2023-02-25T18:52:53;4.30;68.20
20568;DHT22;10442;49.932;11.592;2023-02-25T18:55:23;4.30;68.30
20568;DHT22;10442;49.932;11.592;2023-02-25T18:57:53;4.30;68.00
20568;DHT22;10442;49.932;11.592;2023-02-25T19:00:23;4.20;68.00
20568;DHT22;10442;49.932;11.592;2023-02-25T19:02:53;4.20;68.10
20568;DHT22;10442;49.932;11.592;2023-02-25T19:05:22;4.20;68.40
20568;DHT22;10442;49.932;11.592;2023-02-25T19:07:50;4.20;68.70
20568;DHT22;10442;49.932;11.592;2023-02-25T19:10:21;4.20;68.80
20568;DHT22;10442;49.932;11.592;2023-02-25T19:12:51;4.30;69.10